Anita, Iowa
Current Conditions -  °F | °C
As of 7:55 PM on Sunday 21 Dec 2014 (Local Time) from KAIO Reporting Station
Haze Haze  
Wind Chill: 34°   Ceiling: 600
Heat Index: 41°   Visibility: 3mi
Dew Point: 41°   Wind: 13mph
Humidity: 100%   Direction: 180°S
Pressure: 29.72"   Gusts: 18mph
Location:  41.45°N, 94.76°W
Report Text: KAIO 220155Z AUTO 18011G16KT 3SM BR OVC006 05/05 A2972 RMK AO2
Loading
Personal Weather Stations






























Interactive Weather Map New forecast layout! Learn more

10-Day Weather Forecast

Advertisements
Track Severe Weather on mobile